Time;durP1;ratioP1;P1;durP2;ratioP2;P2;SDS_P1;SDS_P2;PMS_P1;PMS_P2;Temp;Humidity;BMP_temperature;BMP_pressure;BME280_temperature;BME280_humidity;BME280_pressure;Samples;Min_cycle;Max_cycle;Signal;HPM_P1;HPM_P2
2021/10/23 00:00:10;;;;;;;;;;;;;;;18.48;40.15;96384.31;1044307;28;962;-59
2021/10/23 00:00:40;;;;;;;;;;;;;;;18.48;40.15;96379.06;1044228;28;1515;-62
2021/10/23 00:01:11;;;;;;;;;;;;;;;18.49;40.13;96387.72;1044020;28;1905;-61
2021/10/23 00:01:41;;;;;;;;;;;;;;;18.48;40.13;96384.31;1044087;28;858;-61
2021/10/23 00:02:11;;;;;;;;;;;;;;;18.48;40.23;96386.16;1044190;28;962;-61
2021/10/23 00:02:42;;;;;;;;;;;;;;;18.49;40.21;96385.09;1043315;28;1121;-61
2021/10/23 00:03:12;;;;;;;;;;;;;;;18.48;40.22;96383.53;1044810;28;760;-61
2021/10/23 00:03:43;;;;;;;;;;;;;;;18.47;40.31;96384.53;1044355;28;812;-61
2021/10/23 00:04:13;;;;;;;;;;;;;;;18.48;40.19;96388.78;1044391;28;791;-61
2021/10/23 00:04:44;;;;;;;;;;;;;;;18.46;40.20;96385.59;1044436;28;812;-61
2021/10/23 00:05:14;;;;;;;;;;;;;;;18.46;40.29;96386.41;1044725;28;777;-61
2021/10/23 00:05:44;;;;;;;;;;;;;;;18.46;40.08;96381.16;1043620;28;714;-61
2021/10/23 00:06:15;;;;;;;;;;;;;;;18.47;40.07;96387.16;1043068;28;1029;-61
2021/10/23 00:06:45;;;;;;;;;;;;;;;18.47;40.07;96387.97;1044381;28;792;-61
2021/10/23 00:07:15;;;;;;;;;;;;;;;18.48;40.26;96389.56;1044303;28;780;-61
2021/10/23 00:07:45;;;;;;;;;;;;;;;18.47;40.21;96384.53;1044174;28;1085;-60
2021/10/23 00:08:16;;;;;;;;;;;;;;;18.47;40.14;96384.53;1044711;28;1017;-61
2021/10/23 00:08:46;;;;;;;;;;;;;;;18.47;40.14;96395.03;1044690;28;1351;-59
2021/10/23 00:09:16;;;;;;;;;;;;;;;18.46;40.43;96385.59;1044694;28;1014;-61
2021/10/23 00:09:47;;;;;;;;;;;;;;;18.46;40.28;96383.78;1044767;28;777;-61
2021/10/23 00:10:17;;;;;;;;;;;;;;;18.45;40.20;96387.44;1044555;28;1018;-61
2021/10/23 00:10:47;;;;;;;;;;;;;;;18.45;40.15;96384.81;1044263;28;1213;-61
2021/10/23 00:11:18;;;;;;;;;;;;;;;18.45;40.09;96387.44;1043946;28;855;-61
2021/10/23 00:11:48;;;;;;;;;;;;;;;18.45;40.10;96382.16;1043917;28;1014;-61
2021/10/23 00:12:18;;;;;;;;;;;;;;;18.46;40.10;96391.66;1039852;28;823;-61
2021/10/23 00:12:49;;;;;;;;;;;;;;;18.45;40.18;96384.81;1044093;28;741;-61
2021/10/23 00:13:19;;;;;;;;;;;;;;;18.47;40.14;96387.16;1044492;28;901;-61
2021/10/23 00:13:50;;;;;;;;;;;;;;;18.46;40.16;96390.84;1044330;28;1034;-61
2021/10/23 00:14:20;;;;;;;;;;;;;;;18.46;40.13;96390.84;1044048;28;973;-61
2021/10/23 00:14:50;;;;;;;;;;;;;;;18.45;40.24;96384.00;1044873;28;757;-61
2021/10/23 00:15:21;;;;;;;;;;;;;;;18.46;40.09;96388.22;1044381;28;870;-61
2021/10/23 00:15:51;;;;;;;;;;;;;;;18.45;40.22;96387.44;1044772;28;792;-59
2021/10/23 00:16:22;;;;;;;;;;;;;;;18.45;40.28;96391.88;1043752;28;863;-62
2021/10/23 00:16:52;;;;;;;;;;;;;;;18.44;40.17;96385.81;1044484;28;701;-61
2021/10/23 00:17:23;;;;;;;;;;;;;;;18.44;40.14;96388.44;1044404;28;811;-61
2021/10/23 00:17:53;;;;;;;;;;;;;;;18.45;40.22;96384.81;1042995;28;771;-61
2021/10/23 00:18:24;;;;;;;;;;;;;;;18.45;40.11;96392.69;1044123;28;1199;-61
2021/10/23 00:18:54;;;;;;;;;;;;;;;18.45;40.16;96391.88;1036019;28;1224;-61
2021/10/23 00:19:25;;;;;;;;;;;;;;;18.45;40.26;96386.63;1036201;28;839;-63
2021/10/23 00:20:00;;;;;;;;;;;;;;;18.44;40.16;96392.94;1036212;28;784;-61
2021/10/23 00:20:30;;;;;;;;;;;;;;;18.44;40.28;96393.69;1040592;28;1248;-61
2021/10/23 00:21:01;;;;;;;;;;;;;;;18.43;40.19;96392.13;1040200;28;796;-61
2021/10/23 00:21:31;;;;;;;;;;;;;;;18.43;40.17;96391.28;1039703;28;1969;-62
2021/10/23 00:22:02;;;;;;;;;;;;;;;18.43;40.16;96391.28;1040169;28;772;-61
2021/10/23 00:22:32;;;;;;;;;;;;;;;18.43;40.24;96388.66;1035782;28;974;-61
2021/10/23 00:23:02;;;;;;;;;;;;;;;18.43;40.15;96386.88;1040113;28;847;-61
2021/10/23 00:23:33;;;;;;;;;;;;;;;18.43;40.16;96391.28;1044346;28;733;-61
2021/10/23 00:24:03;;;;;;;;;;;;;;;18.42;40.20;96390.50;1044348;28;827;-60
2021/10/23 00:24:34;;;;;;;;;;;;;;;18.42;40.31;96397.59;1039395;28;1497;-61
2021/10/23 00:25:04;;;;;;;;;;;;;;;18.41;40.11;96393.38;1040326;28;855;-61
2021/10/23 00:25:35;;;;;;;;;;;;;;;18.42;40.41;96394.97;1040261;28;776;-61
2021/10/23 00:26:05;;;;;;;;;;;;;;;18.42;40.11;96394.97;1040018;28;1081;-61
2021/10/23 00:26:35;;;;;;;;;;;;;;;18.42;40.18;96394.97;1044039;28;1018;-60
2021/10/23 00:27:06;;;;;;;;;;;;;;;18.41;40.19;96386.28;1044309;28;1082;-61
2021/10/23 00:27:36;;;;;;;;;;;;;;;18.41;40.25;96396.78;1044228;28;1128;-61
2021/10/23 00:28:06;;;;;;;;;;;;;;;18.40;40.23;96392.56;1044254;28;1037;-60
2021/10/23 00:28:37;;;;;;;;;;;;;;;18.40;40.16;96394.41;1044296;28;805;-61
2021/10/23 00:29:08;;;;;;;;;;;;;;;18.40;40.23;96391.78;1044360;28;1100;-63
2021/10/23 00:29:38;;;;;;;;;;;;;;;18.40;40.19;96391.78;1043588;28;753;-61
2021/10/23 00:30:08;;;;;;;;;;;;;;;18.39;40.18;96396.25;1044360;28;1208;-62
2021/10/23 00:30:39;;;;;;;;;;;;;;;18.39;40.26;96391.00;1044426;28;1264;-61
2021/10/23 00:31:10;;;;;;;;;;;;;;;18.39;40.12;96390.19;1044196;28;1021;-61
2021/10/23 00:31:41;;;;;;;;;;;;;;;18.39;40.22;96391.00;1044629;28;804;-60
2021/10/23 00:32:11;;;;;;;;;;;;;;;18.40;40.18;96386.53;1043883;28;887;-61
2021/10/23 00:32:42;;;;;;;;;;;;;;;18.39;40.24;96392.81;1043029;28;808;-61
2021/10/23 00:33:13;;;;;;;;;;;;;;;18.40;40.19;96399.66;1044197;28;868;-61
2021/10/23 00:33:43;;;;;;;;;;;;;;;18.40;40.24;96394.41;1044282;28;828;-61
2021/10/23 00:34:14;;;;;;;;;;;;;;;18.40;40.21;96391.78;1044396;28;985;-61
2021/10/23 00:34:44;;;;;;;;;;;;;;;18.40;40.16;96394.41;1043871;28;753;-61
2021/10/23 00:35:14;;;;;;;;;;;;;;;18.39;40.17;96387.56;1039890;28;1366;-61
2021/10/23 00:35:45;;;;;;;;;;;;;;;18.39;40.22;96390.19;1036114;28;808;-61
2021/10/23 00:36:15;;;;;;;;;;;;;;;18.39;40.09;96392.81;1035454;28;986;-61
2021/10/23 00:36:45;;;;;;;;;;;;;;;18.38;40.15;96394.66;1040285;28;795;-61
2021/10/23 00:37:16;;;;;;;;;;;;;;;18.39;40.07;96398.06;1044070;28;874;-61
2021/10/23 00:37:46;;;;;;;;;;;;;;;18.38;40.15;96388.63;1044078;28;812;-61
2021/10/23 00:38:16;;;;;;;;;;;;;;;18.38;40.20;96394.66;1044603;28;800;-61
2021/10/23 00:38:47;;;;;;;;;;;;;;;18.37;40.20;96390.44;1044786;28;1018;-61
2021/10/23 00:39:17;;;;;;;;;;;;;;;18.37;40.25;96390.44;1044182;28;863;-61
2021/10/23 00:39:48;;;;;;;;;;;;;;;18.37;40.19;96389.66;1044179;28;1074;-60
2021/10/23 00:40:18;;;;;;;;;;;;;;;18.38;40.15;96388.63;1036997;28;971;-62
2021/10/23 00:40:48;;;;;;;;;;;;;;;18.37;40.10;96390.44;1033950;28;1213;-61
2021/10/23 00:41:19;;;;;;;;;;;;;;;18.37;40.20;96393.06;1040116;28;1984;-61
2021/10/23 00:41:49;;;;;;;;;;;;;;;18.37;40.14;96393.06;1039630;28;1018;-61
2021/10/23 00:42:19;;;;;;;;;;;;;;;18.37;40.15;96393.06;1043990;28;1022;-61
2021/10/23 00:42:51;;;;;;;;;;;;;;;18.37;40.23;96392.28;1044172;28;990;-61
2021/10/23 00:43:21;;;;;;;;;;;;;;;18.36;40.31;96391.47;1044439;28;737;-61
2021/10/23 00:43:52;;;;;;;;;;;;;;;18.37;40.25;96389.66;1044750;28;796;-61
2021/10/23 00:44:38;;;;;;;;;;;;;;;18.36;40.21;96386.22;1043999;28;796;-61
2021/10/23 00:45:09;;;;;;;;;;;;;;;18.37;40.15;96384.41;1044617;28;942;-61
2021/10/23 00:45:39;;;;;;;;;;;;;;;18.36;40.25;96380.97;1044516;28;755;-61
2021/10/23 00:46:10;;;;;;;;;;;;;;;18.36;40.08;96388.06;1044305;28;1022;-61
2021/10/23 00:46:40;;;;;;;;;;;;;;;18.36;40.16;96388.06;1044057;28;995;-61
2021/10/23 00:47:20;;;;;;;;;;;;;;;18.37;40.15;96392.28;1043965;28;814;-61
2021/10/23 00:47:50;;;;;;;;;;;;;;;18.34;40.10;96390.91;1043029;28;1042;-61
2021/10/23 00:48:21;;;;;;;;;;;;;;;18.35;40.24;96389.09;1044420;28;856;-61
2021/10/23 00:48:51;;;;;;;;;;;;;;;18.36;40.16;96390.69;1040024;28;1112;-61
2021/10/23 00:49:22;;;;;;;;;;;;;;;18.35;40.20;96387.28;1040080;28;742;-61
2021/10/23 00:49:52;;;;;;;;;;;;;;;18.35;40.19;96392.53;1035688;28;1344;-62
2021/10/23 00:50:22;;;;;;;;;;;;;;;18.36;40.08;96395.94;1040195;28;820;-61
2021/10/23 00:50:53;;;;;;;;;;;;;;;18.36;40.21;96395.94;1044006;28;1253;-62
2021/10/23 00:51:23;;;;;;;;;;;;;;;18.35;40.09;96392.53;1040122;28;862;-61
2021/10/23 00:51:53;;;;;;;;;;;;;;;18.35;40.14;96394.34;1043784;28;965;-61
2021/10/23 00:52:24;;;;;;;;;;;;;;;18.35;40.05;96395.16;1044126;28;816;-61
2021/10/23 00:52:54;;;;;;;;;;;;;;;18.35;40.15;96389.09;1039744;28;879;-61
2021/10/23 00:53:25;;;;;;;;;;;;;;;18.34;39.99;96387.53;1044396;28;836;-61
2021/10/23 00:53:56;;;;;;;;;;;;;;;18.36;40.19;96398.56;1044233;28;761;-61
2021/10/23 00:54:26;;;;;;;;;;;;;;;18.35;40.19;96394.34;1043799;28;1002;-61
2021/10/23 00:54:57;;;;;;;;;;;;;;;18.34;40.06;96395.41;1044466;28;1001;-62
2021/10/23 00:55:27;;;;;;;;;;;;;;;18.35;40.27;96399.59;1040093;28;998;-61
2021/10/23 00:55:57;;;;;;;;;;;;;;;18.34;40.15;96400.66;1040037;28;959;-61
2021/10/23 00:56:28;;;;;;;;;;;;;;;18.33;40.14;96401.66;1040263;28;1077;-60
2021/10/23 00:56:58;;;;;;;;;;;;;;;18.33;40.24;96396.41;1039729;28;1042;-61
2021/10/23 00:57:29;;;;;;;;;;;;;;;18.32;40.20;96398.25;1040177;28;935;-61
2021/10/23 00:57:59;;;;;;;;;;;;;;;18.33;40.08;96402.47;1031739;28;1110;-61
2021/10/23 00:58:29;;;;;;;;;;;;;;;18.33;40.20;96399.03;1032158;28;975;-61
2021/10/23 00:59:00;;;;;;;;;;;;;;;18.33;40.07;96406.91;1035988;28;820;-62
2021/10/23 00:59:30;;;;;;;;;;;;;;;18.32;40.25;96403.50;1040117;28;801;-61
2021/10/23 01:00:01;;;;;;;;;;;;;;;18.33;40.10;96401.66;1044694;28;796;-61
2021/10/23 01:00:31;;;;;;;;;;;;;;;18.34;40.18;96398.03;1044578;28;1312;-61
2021/10/23 01:01:02;;;;;;;;;;;;;;;18.33;40.11;96399.03;1044605;28;800;-61
2021/10/23 01:01:33;;;;;;;;;;;;;;;18.32;40.24;96397.47;1044565;28;1981;-61
2021/10/23 01:02:03;;;;;;;;;;;;;;;18.32;40.21;96400.09;1043236;28;844;-61
2021/10/23 01:02:34;;;;;;;;;;;;;;;18.32;40.31;96397.47;1039483;28;760;-61
2021/10/23 01:03:05;;;;;;;;;;;;;;;18.32;40.13;96400.88;1039430;28;816;-61
2021/10/23 01:03:37;;;;;;;;;;;;;;;18.33;40.20;96401.66;1040136;28;1069;-61
2021/10/23 01:04:07;;;;;;;;;;;;;;;18.31;40.11;96399.28;1039708;28;1426;-61
2021/10/23 01:04:38;;;;;;;;;;;;;;;18.32;40.23;96405.34;1039945;28;769;-61
2021/10/23 01:05:09;;;;;;;;;;;;;;;18.32;40.17;96400.09;1044312;28;970;-61
2021/10/23 01:05:39;;;;;;;;;;;;;;;18.33;40.24;96406.91;1039753;28;1466;-61
2021/10/23 01:06:09;;;;;;;;;;;;;;;18.32;40.13;96397.47;1043931;28;797;-61
2021/10/23 01:06:40;;;;;;;;;;;;;;;18.33;40.17;96394.59;1044391;28;820;-61
2021/10/23 01:07:10;;;;;;;;;;;;;;;18.32;40.02;96397.47;1039883;28;1667;-61
2021/10/23 01:07:41;;;;;;;;;;;;;;;18.32;40.22;96400.09;1039657;28;789;-61
2021/10/23 01:08:21;;;;;;;;;;;;;;;18.32;40.23;96403.50;1036081;28;1126;-62
2021/10/23 01:09:03;;;;;;;;;;;;;;;18.32;40.17;96400.88;1038873;28;1364;-61
2021/10/23 01:09:47;;;;;;;;;;;;;;;18.31;40.15;96406.38;1039889;28;1378;-61
2021/10/23 01:10:18;;;;;;;;;;;;;;;18.31;40.22;96406.38;1039743;28;800;-60
2021/10/23 01:10:57;;;;;;;;;;;;;;;18.31;40.21;96401.91;1031999;28;1302;-61
2021/10/23 01:11:47;;;;;;;;;;;;;;;18.31;40.21;96409.78;1037685;28;987;-61
2021/10/23 01:12:35;;;;;;;;;;;;;;;18.31;40.21;96407.16;1042037;28;843;-61
2021/10/23 01:13:05;;;;;;;;;;;;;;;18.30;40.19;96413.44;1044478;28;1006;-61
2021/10/23 01:13:36;;;;;;;;;;;;;;;18.31;40.18;96414.25;1044071;28;1104;-61
2021/10/23 01:14:12;;;;;;;;;;;;;;;18.31;40.18;96409.00;1039940;28;1324;-61
2021/10/23 01:14:44;;;;;;;;;;;;;;;18.30;40.16;96410.81;1035637;28;827;-61
2021/10/23 01:15:34;;;;;;;;;;;;;;;18.31;40.10;96404.53;1031718;28;1154;-61
2021/10/23 01:16:24;;;;;;;;;;;;;;;18.30;40.34;96408.19;1034852;28;802;-61
2021/10/23 01:17:07;;;;;;;;;;;;;;;18.31;40.24;96409.00;1038412;28;1233;-61
2021/10/23 01:17:37;;;;;;;;;;;;;;;18.31;40.22;96409.00;1039722;28;812;-61
2021/10/23 01:18:09;;;;;;;;;;;;;;;18.30;40.23;96404.78;1043302;28;859;-61
2021/10/23 01:18:42;;;;;;;;;;;;;;;18.30;40.09;96404.78;1044256;28;843;-61
2021/10/23 01:19:13;;;;;;;;;;;;;;;18.31;40.14;96398.50;1044246;28;823;-61
2021/10/23 01:19:57;;;;;;;;;;;;;;;18.29;40.10;96406.63;1043897;28;1269;-60
2021/10/23 01:20:47;;;;;;;;;;;;;;;18.30;40.13;96405.56;1044004;28;1419;-61
2021/10/23 01:21:38;;;;;;;;;;;;;;;18.29;40.17;96404.00;1044183;28;2323;-61
2021/10/23 01:22:28;;;;;;;;;;;;;;;18.29;40.16;96411.06;1044215;28;907;-61
2021/10/23 01:23:19;;;;;;;;;;;;;;;18.29;40.15;96406.63;1044316;28;1004;-61
2021/10/23 01:23:49;;;;;;;;;;;;;;;18.29;40.26;96411.88;1044036;28;1165;-61
2021/10/23 01:24:20;;;;;;;;;;;;;;;18.29;40.20;96408.44;1043617;28;1070;-61
2021/10/23 01:24:50;;;;;;;;;;;;;;;18.28;40.12;96399.75;1040087;28;1463;-59
2021/10/23 01:25:23;;;;;;;;;;;;;;;18.29;40.25;96408.44;1040132;28;738;-61
2021/10/23 01:25:53;;;;;;;;;;;;;;;18.29;40.11;96411.06;1040144;28;790;-63
2021/10/23 01:26:43;;;;;;;;;;;;;;;18.29;40.27;96408.44;1042932;28;971;-61
2021/10/23 01:27:33;;;;;;;;;;;;;;;18.28;40.10;96409.50;1045182;28;729;-61
2021/10/23 01:28:24;;;;;;;;;;;;;;;18.28;40.26;96410.25;1044912;28;1131;-61
2021/10/23 01:28:54;;;;;;;;;;;;;;;18.28;40.19;96407.63;1045282;28;749;-61
2021/10/23 01:29:25;;;;;;;;;;;;;;;18.29;40.27;96411.06;1045438;28;871;-61
2021/10/23 01:29:55;;;;;;;;;;;;;;;18.28;40.18;96412.13;1045364;28;820;-61
2021/10/23 01:30:26;;;;;;;;;;;;;;;18.27;40.23;96411.31;1044650;28;827;-61
2021/10/23 01:31:00;;;;;;;;;;;;;;;18.28;40.21;96406.88;1045029;28;848;-61
2021/10/23 01:31:40;;;;;;;;;;;;;;;18.28;40.10;96410.25;1040789;28;1348;-61
2021/10/23 01:32:30;;;;;;;;;;;;;;;18.28;40.20;96405.00;1037630;28;1404;-61
2021/10/23 01:33:01;;;;;;;;;;;;;;;18.28;40.16;96409.50;1039674;28;1494;-63
2021/10/23 01:33:34;;;;;;;;;;;;;;;18.27;40.20;96397.41;1035664;28;1076;-61
2021/10/23 01:34:14;;;;;;;;;;;;;;;18.28;40.13;96406.88;1036678;28;738;-62
2021/10/23 01:34:44;;;;;;;;;;;;;;;18.27;40.19;96400.81;1033793;28;847;-61
2021/10/23 01:35:15;;;;;;;;;;;;;;;18.27;40.27;96400.81;1034150;28;944;-61
2021/10/23 01:35:45;;;;;;;;;;;;;;;18.28;40.28;96409.50;1036291;28;1077;-61
2021/10/23 01:36:16;;;;;;;;;;;;;;;18.28;40.09;96405.00;1036802;28;1006;-60
2021/10/23 01:36:51;;;;;;;;;;;;;;;18.27;40.18;96402.66;1040857;28;788;-62
2021/10/23 01:37:21;;;;;;;;;;;;;;;18.28;40.21;96401.63;1044907;28;1085;-60
2021/10/23 01:37:52;;;;;;;;;;;;;;;18.27;40.04;96408.69;1044327;28;778;-61
2021/10/23 01:38:23;;;;;;;;;;;;;;;18.28;40.18;96412.13;1040671;28;843;-61
2021/10/23 01:38:54;;;;;;;;;;;;;;;18.28;40.16;96415.50;1040988;28;844;-61
2021/10/23 01:39:24;;;;;;;;;;;;;;;18.28;40.13;96412.13;1040795;28;1362;-61
2021/10/23 01:39:54;;;;;;;;;;;;;;;18.28;40.11;96412.13;1040968;28;974;-61
2021/10/23 01:40:28;;;;;;;;;;;;;;;18.27;40.20;96413.94;1044653;28;1034;-61
2021/10/23 01:40:58;;;;;;;;;;;;;;;18.28;40.29;96417.38;1037025;28;864;-61
2021/10/23 01:41:29;;;;;;;;;;;;;;;18.27;40.16;96408.69;1040736;28;1894;-59
2021/10/23 01:41:59;;;;;;;;;;;;;;;18.27;40.05;96413.13;1040823;28;1089;-61
2021/10/23 01:42:30;;;;;;;;;;;;;;;18.26;40.14;96414.19;1040494;28;824;-61
2021/10/23 01:43:00;;;;;;;;;;;;;;;18.26;40.14;96412.34;1044427;28;1022;-60
2021/10/23 01:43:31;;;;;;;;;;;;;;;18.27;40.05;96418.38;1045229;28;820;-61
2021/10/23 01:44:01;;;;;;;;;;;;;;;18.26;40.11;96411.56;1045214;28;987;-63
2021/10/23 01:44:34;;;;;;;;;;;;;;;18.26;40.12;96414.97;1042801;28;1683;-61
2021/10/23 01:45:05;;;;;;;;;;;;;;;18.27;40.18;96415.75;1044215;28;800;-58
2021/10/23 01:45:35;;;;;;;;;;;;;;;18.26;40.09;96414.97;1045040;28;816;-61
2021/10/23 01:46:06;;;;;;;;;;;;;;;18.26;40.11;96416.81;1044863;28;931;-62
2021/10/23 01:46:36;;;;;;;;;;;;;;;18.26;40.17;96414.97;1044797;28;721;-60
2021/10/23 01:47:06;;;;;;;;;;;;;;;18.27;39.97;96415.75;1044745;28;738;-61
2021/10/23 01:47:40;;;;;;;;;;;;;;;18.26;40.12;96412.34;1044134;28;820;-61
2021/10/23 01:48:10;;;;;;;;;;;;;;;18.26;40.09;96407.09;1044910;28;741;-61
2021/10/23 01:48:41;;;;;;;;;;;;;;;18.26;40.12;96417.59;1044899;28;786;-61
2021/10/23 01:49:11;;;;;;;;;;;;;;;18.26;40.12;96417.59;1040718;28;1002;-61
2021/10/23 01:49:43;;;;;;;;;;;;;;;18.25;40.06;96416.00;1036395;28;994;-61
2021/10/23 01:50:15;;;;;;;;;;;;;;;18.25;40.15;96418.63;1036924;28;1070;-61
2021/10/23 01:50:45;;;;;;;;;;;;;;;18.26;40.24;96416.81;1036570;28;1277;-60
2021/10/23 01:51:16;;;;;;;;;;;;;;;18.26;40.21;96416.81;1037439;28;1070;-62
2021/10/23 01:51:46;;;;;;;;;;;;;;;18.26;40.18;96419.44;1044901;28;935;-61
2021/10/23 01:52:16;;;;;;;;;;;;;;;18.26;40.21;96408.94;1044727;28;1038;-62
2021/10/23 01:52:47;;;;;;;;;;;;;;;18.26;40.10;96419.44;1044592;28;1034;-59
2021/10/23 01:53:17;;;;;;;;;;;;;;;18.26;40.07;96411.56;1044368;28;788;-61
2021/10/23 01:53:47;;;;;;;;;;;;;;;18.26;40.09;96420.22;1040827;28;986;-63
2021/10/23 01:54:18;;;;;;;;;;;;;;;18.27;40.13;96423.63;1040387;28;803;-61
2021/10/23 01:54:48;;;;;;;;;;;;;;;18.26;40.17;96414.97;1044330;28;798;-62
2021/10/23 01:55:19;;;;;;;;;;;;;;;18.25;40.04;96413.38;1044706;28;998;-61
2021/10/23 01:55:51;;;;;;;;;;;;;;;18.25;40.08;96409.97;1045092;28;1054;-60
2021/10/23 01:56:22;;;;;;;;;;;;;;;18.25;40.21;96410.75;1044875;28;784;-61
2021/10/23 01:56:52;;;;;;;;;;;;;;;18.26;40.02;96411.56;1040756;28;844;-60
2021/10/23 01:57:23;;;;;;;;;;;;;;;18.25;40.18;96409.97;1040775;28;789;-60
2021/10/23 01:57:54;;;;;;;;;;;;;;;18.25;40.18;96417.84;1036514;28;1853;-60
2021/10/23 01:58:24;;;;;;;;;;;;;;;18.26;40.08;96419.44;1040985;28;963;-61
2021/10/23 01:58:55;;;;;;;;;;;;;;;18.25;40.30;96412.59;1040840;28;998;-61
2021/10/23 01:59:25;;;;;;;;;;;;;;;18.25;40.15;96413.38;1040710;28;804;-61
2021/10/23 01:59:55;;;;;;;;;;;;;;;18.25;40.12;96415.22;1044370;28;765;-60
2021/10/23 02:00:29;;;;;;;;;;;;;;;18.25;40.12;96417.84;1044722;28;848;-61
2021/10/23 02:00:59;;;;;;;;;;;;;;;18.24;40.13;96416.25;1044855;28;1018;-61
2021/10/23 02:01:29;;;;;;;;;;;;;;;18.24;40.13;96416.25;1044791;28;1981;-61
2021/10/23 02:02:01;;;;;;;;;;;;;;;18.24;40.06;96417.03;1044594;28;863;-63
2021/10/23 02:02:31;;;;;;;;;;;;;;;18.24;40.16;96416.25;1040598;28;1358;-60
2021/10/23 02:03:02;;;;;;;;;;;;;;;18.24;40.13;96413.63;1039962;28;862;-61
2021/10/23 02:03:32;;;;;;;;;;;;;;;18.23;40.02;96414.66;1040692;28;729;-60
2021/10/23 02:04:02;;;;;;;;;;;;;;;18.23;40.04;96415.47;1040767;28;749;-61
2021/10/23 02:04:33;;;;;;;;;;;;;;;18.23;40.07;96412.03;1040107;28;796;-61
2021/10/23 02:05:03;;;;;;;;;;;;;;;18.24;40.08;96418.84;1040336;28;799;-61
2021/10/23 02:05:34;;;;;;;;;;;;;;;18.24;40.05;96408.38;1040697;28;799;-59
2021/10/23 02:06:07;;;;;;;;;;;;;;;18.23;40.02;96412.84;1040460;28;785;-61
2021/10/23 02:06:38;;;;;;;;;;;;;;;18.22;40.07;96411.25;1044886;28;803;-61
2021/10/23 02:07:09;;;;;;;;;;;;;;;18.23;40.06;96419.91;1044451;28;820;-61
2021/10/23 02:07:39;;;;;;;;;;;;;;;18.22;40.00;96406.00;1044465;28;1017;-61
2021/10/23 02:08:10;;;;;;;;;;;;;;;18.22;40.09;96410.44;1044794;28;808;-61
2021/10/23 02:08:40;;;;;;;;;;;;;;;18.22;40.09;96413.06;1044749;28;986;-59
2021/10/23 02:09:11;;;;;;;;;;;;;;;18.22;40.16;96410.44;1045212;28;820;-60
2021/10/23 02:09:41;;;;;;;;;;;;;;;18.22;40.14;96413.88;1044406;28;799;-59
2021/10/23 02:10:12;;;;;;;;;;;;;;;18.22;40.15;96413.06;1044637;28;699;-60
2021/10/23 02:10:42;;;;;;;;;;;;;;;18.21;40.05;96407.03;1044374;28;1249;-60
2021/10/23 02:11:12;;;;;;;;;;;;;;;18.23;40.15;96417.28;1044721;28;803;-59
2021/10/23 02:11:43;;;;;;;;;;;;;;;18.22;40.10;96413.06;1040328;28;867;-61
2021/10/23 02:12:13;;;;;;;;;;;;;;;18.21;40.08;96414.91;1036035;28;1480;-58
2021/10/23 02:12:44;;;;;;;;;;;;;;;18.23;40.20;96417.28;1040459;28;776;-59
2021/10/23 02:13:14;;;;;;;;;;;;;;;18.21;40.05;96414.91;1040746;28;1205;-59
2021/10/23 02:13:44;;;;;;;;;;;;;;;18.21;40.07;96414.13;1044744;28;875;-59
2021/10/23 02:14:15;;;;;;;;;;;;;;;18.21;40.09;96403.63;1040283;28;824;-60
2021/10/23 02:14:46;;;;;;;;;;;;;;;18.22;40.05;96413.06;1035887;28;978;-61
2021/10/23 02:15:16;;;;;;;;;;;;;;;18.21;40.05;96422.78;1040617;28;1030;-60
2021/10/23 02:15:47;;;;;;;;;;;;;;;18.21;40.04;96419.34;1040770;28;990;-61
2021/10/23 02:16:17;;;;;;;;;;;;;;;18.22;39.99;96423.56;1040711;28;1264;-61
2021/10/23 02:16:47;;;;;;;;;;;;;;;18.21;39.95;96420.16;1044746;28;1057;-56
2021/10/23 02:17:18;;;;;;;;;;;;;;;18.20;39.96;96418.56;1044702;28;1046;-58
2021/10/23 02:17:48;;;;;;;;;;;;;;;18.22;39.99;96415.69;1043557;28;990;-60
2021/10/23 02:18:18;;;;;;;;;;;;;;;18.20;40.07;96415.94;1045063;28;1101;-60
2021/10/23 02:18:49;;;;;;;;;;;;;;;18.21;40.00;96420.16;1044292;28;726;-60
2021/10/23 02:19:19;;;;;;;;;;;;;;;18.21;39.94;96416.75;1044907;28;1119;-60
2021/10/23 02:19:49;;;;;;;;;;;;;;;18.21;40.02;96414.13;1044487;28;1054;-61
2021/10/23 02:20:20;;;;;;;;;;;;;;;18.20;40.02;96418.56;1043867;28;1017;-60
2021/10/23 02:20:50;;;;;;;;;;;;;;;18.22;39.94;96413.06;1045018;28;1284;-61
2021/10/23 02:21:20;;;;;;;;;;;;;;;18.21;40.00;96416.75;1044566;28;1906;-60
2021/10/23 02:21:51;;;;;;;;;;;;;;;18.20;39.99;96417.75;1040753;28;749;-59
2021/10/23 02:22:21;;;;;;;;;;;;;;;18.21;40.15;96414.13;1040295;28;844;-58
2021/10/23 02:22:51;;;;;;;;;;;;;;;18.20;40.23;96417.75;1040394;28;955;-59
2021/10/23 02:23:22;;;;;;;;;;;;;;;18.19;40.00;96417.00;1044859;28;836;-61
2021/10/23 02:23:52;;;;;;;;;;;;;;;18.19;40.02;96411.75;1045032;28;777;-57
2021/10/23 02:24:23;;;;;;;;;;;;;;;18.20;40.09;96418.56;1044231;28;1426;-61
2021/10/23 02:24:53;;;;;;;;;;;;;;;18.20;40.07;96415.13;1044186;28;820;-61
2021/10/23 02:25:24;;;;;;;;;;;;;;;18.20;40.06;96412.50;1044843;28;847;-60
2021/10/23 02:25:54;;;;;;;;;;;;;;;18.20;39.92;96415.13;1044941;28;891;-60
2021/10/23 02:26:24;;;;;;;;;;;;;;;18.20;39.99;96418.56;1048990;28;1057;-61
2021/10/23 02:26:55;;;;;;;;;;;;;;;18.19;39.94;96410.94;1048809;28;974;-61
2021/10/23 02:27:25;;;;;;;;;;;;;;;18.19;40.09;96417.00;1044560;28;1010;-58
2021/10/23 02:27:55;;;;;;;;;;;;;;;18.19;39.88;96410.94;1044622;28;1048;-59
2021/10/23 02:28:26;;;;;;;;;;;;;;;18.19;39.93;96411.75;1044730;28;954;-61
2021/10/23 02:28:56;;;;;;;;;;;;;;;18.19;40.14;96419.59;1044504;28;761;-61
2021/10/23 02:29:27;;;;;;;;;;;;;;;18.19;40.14;96413.56;1045125;28;781;-61
2021/10/23 02:29:57;;;;;;;;;;;;;;;18.20;40.02;96413.31;1044309;28;1029;-62
2021/10/23 02:30:27;;;;;;;;;;;;;;;18.19;40.09;96419.59;1040656;28;1193;-61
2021/10/23 02:30:58;;;;;;;;;;;;;;;18.19;40.00;96417.00;1040532;28;852;-59
2021/10/23 02:31:28;;;;;;;;;;;;;;;18.19;40.08;96422.22;1040580;28;935;-61
2021/10/23 02:31:58;;;;;;;;;;;;;;;18.19;40.01;96416.19;1044748;28;1045;-61
2021/10/23 02:32:29;;;;;;;;;;;;;;;18.19;40.03;96426.69;1044524;28;855;-61
2021/10/23 02:32:59;;;;;;;;;;;;;;;18.18;40.02;96425.06;1043669;28;804;-58
2021/10/23 02:33:30;;;;;;;;;;;;;;;18.18;39.99;96422.44;1044581;28;1359;-60
2021/10/23 02:34:00;;;;;;;;;;;;;;;18.19;39.93;96427.47;1040278;28;1374;-60
2021/10/23 02:34:31;;;;;;;;;;;;;;;18.19;40.01;96416.19;1039693;28;809;-60
2021/10/23 02:35:01;;;;;;;;;;;;;;;18.18;39.92;96420.63;1040127;28;733;-61
2021/10/23 02:35:31;;;;;;;;;;;;;;;18.18;39.97;96425.88;1040510;28;1521;-60
2021/10/23 02:36:02;;;;;;;;;;;;;;;18.19;40.01;96426.69;1040257;28;967;-58
2021/10/23 02:36:32;;;;;;;;;;;;;;;18.19;40.03;96421.44;1040424;28;837;-60
2021/10/23 02:37:03;;;;;;;;;;;;;;;18.19;40.06;96430.09;1040518;28;793;-60
2021/10/23 02:37:34;;;;;;;;;;;;;;;18.18;40.09;96431.13;1040490;28;1300;-59
2021/10/23 02:38:04;;;;;;;;;;;;;;;18.18;40.04;96430.31;1040519;28;796;-61
2021/10/23 02:38:34;;;;;;;;;;;;;;;18.18;40.07;96425.88;1040083;28;719;-57
2021/10/23 02:39:07;;;;;;;;;;;;;;;18.19;39.94;96429.31;1036489;28;883;-60
2021/10/23 02:39:37;;;;;;;;;;;;;;;18.17;40.19;96428.75;1041075;28;1066;-61
2021/10/23 02:40:08;;;;;;;;;;;;;;;18.18;39.89;96428.50;1044228;28;876;-58
2021/10/23 02:40:38;;;;;;;;;;;;;;;18.19;40.00;96421.44;1044316;28;1331;-60
2021/10/23 02:41:08;;;;;;;;;;;;;;;18.18;40.02;96433.75;1040680;28;936;-59
2021/10/23 02:41:39;;;;;;;;;;;;;;;18.19;40.10;96434.56;1044545;28;1910;-60
2021/10/23 02:42:09;;;;;;;;;;;;;;;18.19;40.02;96426.69;1040304;28;1319;-60
2021/10/23 02:42:39;;;;;;;;;;;;;;;18.19;40.00;96437.19;1040217;28;984;-58
2021/10/23 02:43:10;;;;;;;;;;;;;;;18.18;39.96;96431.13;1040444;28;831;-57
2021/10/23 02:43:40;;;;;;;;;;;;;;;18.19;40.00;96426.69;1044655;28;1091;-59
2021/10/23 02:44:10;;;;;;;;;;;;;;;18.18;40.01;96430.31;1045064;28;788;-60
2021/10/23 02:44:41;;;;;;;;;;;;;;;18.18;39.90;96438.19;1044448;28;1074;-61
2021/10/23 02:45:11;;;;;;;;;;;;;;;18.17;40.01;96431.38;1044617;28;824;-60
2021/10/23 02:45:42;;;;;;;;;;;;;;;18.18;39.99;96430.31;1044936;28;710;-60
2021/10/23 02:46:12;;;;;;;;;;;;;;;18.17;39.87;96431.38;1045093;28;726;-60
2021/10/23 02:46:42;;;;;;;;;;;;;;;18.17;39.86;96428.75;1044985;28;847;-61
2021/10/23 02:47:13;;;;;;;;;;;;;;;18.16;39.97;96437.66;1044652;28;804;-58
2021/10/23 02:47:43;;;;;;;;;;;;;;;18.17;40.03;96431.38;1043419;28;851;-56
2021/10/23 02:48:14;;;;;;;;;;;;;;;18.17;40.00;96434.00;1040501;28;1717;-62